createdAt,value
2018-08-03T00:00:53.897Z,3.70
2018-08-03T00:01:53.911Z,3.90
2018-08-03T00:02:53.877Z,3.80
2018-08-03T00:03:53.864Z,4.00
2018-08-03T00:04:53.855Z,4.30
2018-08-03T00:05:53.868Z,3.90
2018-08-03T00:06:53.832Z,4.00
2018-08-03T00:07:53.818Z,3.50
2018-08-03T00:08:53.834Z,3.90
2018-08-03T00:09:53.800Z,4.20
2018-08-03T00:10:53.787Z,3.80
2018-08-03T00:11:53.775Z,3.70
2018-08-03T00:12:53.797Z,4.00
2018-08-03T00:13:53.755Z,4.00
2018-08-03T00:14:53.747Z,4.00
2018-08-03T00:15:53.734Z,3.80
2018-08-03T00:16:53.721Z,4.10
2018-08-03T00:17:53.709Z,4.00
2018-08-03T00:18:53.733Z,4.00
2018-08-03T00:19:53.687Z,3.90
2018-08-03T00:20:53.677Z,4.10
2018-08-03T00:21:53.667Z,4.30
2018-08-03T00:22:53.657Z,3.90
2018-08-03T00:23:53.646Z,3.60
2018-08-03T00:24:53.654Z,3.50
2018-08-03T00:25:53.622Z,3.90
2018-08-03T00:26:53.612Z,4.10
2018-08-03T00:27:53.649Z,3.90
2018-08-03T00:28:53.591Z,4.10
2018-08-03T00:29:53.581Z,3.90
2018-08-03T00:30:53.567Z,4.50
2018-08-03T00:31:53.556Z,4.00
2018-08-03T00:32:53.548Z,4.10
2018-08-03T00:33:53.568Z,4.10
2018-08-03T00:34:53.523Z,4.00
2018-08-03T00:35:53.513Z,4.40
2018-08-03T00:36:53.504Z,4.50
2018-08-03T00:37:53.492Z,4.00
2018-08-03T00:38:53.480Z,4.10
2018-08-03T00:39:53.500Z,4.10
2018-08-03T00:40:53.456Z,4.40
2018-08-03T00:41:53.445Z,4.10
2018-08-03T00:42:53.439Z,4.20
2018-08-03T00:43:53.425Z,3.80
2018-08-03T00:44:53.415Z,4.30
2018-08-03T00:45:53.430Z,4.00
2018-08-03T00:46:53.437Z,4.70
2018-08-03T00:47:53.382Z,4.30
2018-08-03T00:48:53.372Z,4.10
2018-08-03T00:49:53.357Z,4.20
2018-08-03T00:50:53.345Z,4.20
2018-08-03T00:51:53.334Z,4.20
2018-08-03T00:52:53.347Z,4.20
2018-08-03T00:53:53.315Z,4.20
2018-08-03T00:54:53.341Z,4.60
2018-08-03T00:55:53.295Z,4.00
2018-08-03T00:56:53.287Z,4.40
2018-08-03T00:57:53.269Z,4.50
2018-08-03T00:58:53.279Z,4.50
2018-08-03T00:59:53.248Z,4.60
2018-08-03T01:00:53.282Z,4.50
2018-08-03T01:01:53.228Z,4.40
2018-08-03T01:02:53.215Z,4.40
2018-08-03T01:03:53.202Z,4.20
2018-08-03T01:04:53.193Z,4.50
2018-08-03T01:05:53.184Z,4.30
2018-08-03T01:06:53.196Z,4.40
2018-08-03T01:07:53.158Z,4.50
2018-08-03T01:08:53.147Z,4.30
2018-08-03T01:09:53.138Z,5.00
2018-08-03T01:10:53.131Z,4.60
2018-08-03T01:11:53.149Z,4.30
2018-08-03T01:12:53.108Z,4.50
2018-08-03T01:13:53.116Z,4.60
2018-08-03T01:14:53.080Z,4.80
2018-08-03T01:15:53.069Z,4.70
2018-08-03T01:16:53.107Z,4.40
2018-08-03T01:17:53.047Z,4.80
2018-08-03T01:18:53.034Z,4.70
2018-08-03T01:19:53.041Z,4.70
2018-08-03T01:20:53.018Z,4.60
2018-08-03T01:21:53.002Z,5.10
2018-08-03T01:22:53.027Z,4.70
2018-08-03T01:23:52.977Z,4.70
2018-08-03T01:24:52.968Z,5.20
2018-08-03T01:25:52.973Z,5.40
2018-08-03T01:26:52.947Z,5.60
2018-08-03T01:27:52.933Z,5.10
2018-08-03T01:28:52.955Z,5.40
2018-08-03T01:29:52.912Z,5.10
2018-08-03T01:30:52.902Z,4.70
2018-08-03T01:31:52.894Z,5.10
2018-08-03T01:32:52.883Z,4.90
2018-08-03T01:33:52.868Z,5.40
2018-08-03T01:34:52.892Z,5.30
2018-08-03T01:35:52.847Z,5.30
2018-08-03T01:36:52.837Z,5.10
2018-08-03T01:37:52.942Z,5.50
2018-08-03T01:38:52.814Z,4.80
2018-08-03T01:39:52.802Z,5.30
2018-08-03T01:40:52.813Z,4.90
2018-08-03T01:41:52.778Z,5.10
2018-08-03T01:42:52.767Z,4.90
2018-08-03T01:43:52.767Z,5.00
2018-08-03T01:44:52.745Z,4.90
2018-08-03T01:45:52.774Z,5.10
2018-08-03T01:46:52.722Z,5.10
2018-08-03T01:47:52.711Z,5.10
2018-08-03T01:48:52.697Z,4.80
2018-08-03T01:49:52.685Z,5.00
2018-08-03T01:50:52.674Z,5.20
2018-08-03T01:51:52.688Z,4.90
2018-08-03T01:52:52.656Z,4.90
2018-08-03T01:53:52.648Z,5.30
2018-08-03T01:54:52.631Z,4.90
2018-08-03T01:55:52.623Z,5.00
2018-08-03T01:56:52.634Z,5.30
2018-08-03T01:57:52.596Z,5.10
2018-08-03T01:58:52.623Z,5.40
2018-08-03T01:59:52.576Z,5.70
2018-08-03T02:00:52.565Z,5.80
2018-08-03T02:01:52.552Z,5.70
2018-08-03T02:02:52.542Z,5.70
2018-08-03T02:03:52.531Z,6.10
2018-08-03T02:04:57.851Z,6.10
2018-08-03T02:05:52.507Z,6.20
2018-08-03T02:06:52.506Z,5.90
2018-08-03T02:07:52.486Z,6.40
2018-08-03T02:08:52.472Z,7.00
2018-08-03T02:09:52.460Z,6.70
2018-08-03T02:10:52.470Z,5.50
2018-08-03T02:11:52.453Z,5.80
2018-08-03T02:12:52.429Z,6.20
2018-08-03T02:13:52.416Z,5.50
2018-08-03T02:14:52.404Z,5.80
2018-08-03T02:15:52.400Z,5.40
2018-08-03T02:16:52.400Z,6.00
2018-08-03T02:17:52.385Z,5.50
2018-08-03T02:18:52.375Z,5.70
2018-08-03T02:19:52.349Z,6.00
2018-08-03T02:20:52.335Z,5.60
2018-08-03T02:21:52.329Z,5.90
2018-08-03T02:22:52.312Z,5.80
2018-08-03T02:23:52.320Z,5.60
2018-08-03T02:24:52.320Z,6.20
2018-08-03T02:25:52.283Z,5.50
2018-08-03T02:26:52.272Z,5.70
2018-08-03T02:27:52.261Z,5.80
2018-08-03T02:28:52.251Z,5.20
2018-08-03T02:29:52.235Z,5.70
2018-08-03T02:30:52.244Z,5.70
2018-08-03T02:31:52.238Z,5.70
2018-08-03T02:32:52.220Z,6.50
2018-08-03T02:33:52.191Z,5.60
2018-08-03T02:34:52.183Z,5.90
2018-08-03T02:35:52.175Z,5.70
2018-08-03T02:36:52.161Z,6.00
2018-08-03T02:37:52.163Z,5.80
2018-08-03T02:38:52.138Z,6.20
2018-08-03T02:39:52.128Z,5.90
2018-08-03T02:40:52.113Z,6.20
2018-08-03T02:41:52.117Z,6.40
2018-08-03T02:42:52.099Z,6.20
2018-08-03T02:43:52.099Z,6.90
2018-08-03T02:44:52.069Z,6.90
2018-08-03T02:45:52.061Z,6.80
2018-08-03T02:46:52.048Z,7.00
2018-08-03T02:47:52.034Z,7.00
2018-08-03T02:48:52.029Z,6.50
2018-08-03T02:49:52.030Z,6.60
2018-08-03T02:50:52.023Z,6.60
2018-08-03T02:51:51.991Z,6.80
